Time;durP1;ratioP1;P1;durP2;ratioP2;P2;SDS_P1;SDS_P2;PMS_P1;PMS_P2;Temp;Humidity;BMP_temperature;BMP_pressure;BME280_temperature;BME280_humidity;BME280_pressure;Samples;Min_cycle;Max_cycle;Signal;HPM_P1;HPM_P2
2020/12/20 00:00:28;;;;;;;18.17;7.22;;;11.10;99.90;;;;;;5077142;28;20031;-68
2020/12/20 00:02:55;;;;;;;16.75;7.35;;;11.00;99.90;;;;;;5068023;28;20042;-66
2020/12/20 00:05:22;;;;;;;15.90;7.47;;;10.90;99.90;;;;;;5087638;28;20052;-66
2020/12/20 00:07:48;;;;;;;18.48;7.10;;;11.00;99.90;;;;;;5075573;28;20046;-66
2020/12/20 00:10:13;;;;;;;16.60;6.97;;;11.00;99.90;;;;;;5061851;28;20032;-65
2020/12/20 00:12:40;;;;;;;16.73;7.50;;;10.90;99.90;;;;;;5077012;28;20139;-66
2020/12/20 00:15:06;;;;;;;16.25;7.20;;;10.80;99.90;;;;;;5068930;28;20039;-66
2020/12/20 00:17:32;;;;;;;16.70;7.78;;;10.80;99.90;;;;;;5078183;28;20069;-67
2020/12/20 00:19:58;;;;;;;18.38;8.40;;;10.70;99.90;;;;;;5088186;28;20028;-67
2020/12/20 00:22:24;;;;;;;17.02;7.82;;;10.80;99.90;;;;;;5072759;28;20024;-70
2020/12/20 00:24:50;;;;;;;19.58;7.20;;;10.80;99.90;;;;;;5065439;28;20474;-70
2020/12/20 00:27:16;;;;;;;17.00;7.68;;;10.90;99.90;;;;;;5065934;28;20028;-67
2020/12/20 00:29:42;;;;;;;17.00;7.45;;;10.90;99.90;;;;;;5064397;28;20028;-67
2020/12/20 00:32:09;;;;;;;16.73;7.72;;;10.90;99.90;;;;;;5072113;28;20223;-68
2020/12/20 00:34:36;;;;;;;16.37;7.43;;;10.80;99.90;;;;;;5088460;28;20024;-70
2020/12/20 00:37:03;;;;;;;16.75;7.35;;;10.70;99.90;;;;;;5070804;28;20348;-70
2020/12/20 00:39:28;;;;;;;17.52;7.30;;;10.60;99.90;;;;;;5066628;28;20451;-71
2020/12/20 00:41:56;;;;;;;17.52;7.38;;;10.50;99.90;;;;;;5065777;28;20120;-70
2020/12/20 00:44:22;;;;;;;17.92;7.68;;;10.30;99.90;;;;;;5066541;28;20047;-70
2020/12/20 00:46:49;;;;;;;16.35;7.10;;;10.10;99.90;;;;;;5068386;28;20469;-70
2020/12/20 00:49:15;;;;;;;16.88;7.10;;;10.10;99.90;;;;;;5067015;28;20052;-70
2020/12/20 00:51:40;;;;;;;16.88;7.10;;;10.10;99.90;;;;;;5065264;28;20064;-70
2020/12/20 00:54:06;;;;;;;16.90;7.63;;;10.10;99.90;;;;;;5066329;28;20036;-70
2020/12/20 00:56:32;;;;;;;18.50;7.25;;;10.10;99.90;;;;;;5066808;28;20078;-70
2020/12/20 00:58:59;;;;;;;19.25;8.15;;;10.10;99.90;;;;;;5066669;28;20088;-70
2020/12/20 01:01:24;;;;;;;18.13;7.22;;;10.10;99.90;;;;;;5056552;28;20020;-70
2020/12/20 01:03:52;;;;;;;16.33;7.35;;;10.20;99.90;;;;;;5057170;28;20286;-70
2020/12/20 01:06:24;;;;;;;16.67;7.28;;;10.30;99.90;;;;;;5055287;28;20392;-70
2020/12/20 01:08:51;;;;;;;17.13;7.72;;;10.30;99.90;;;;;;5057186;28;20029;-70
2020/12/20 01:11:18;;;;;;;20.20;8.23;;;10.40;99.90;;;;;;5073947;22;20056;-59
2020/12/20 01:13:45;;;;;;;17.52;7.70;;;10.30;99.90;;;;;;5064164;28;20408;-61
2020/12/20 01:16:23;;;;;;;16.55;7.03;;;10.30;99.90;;;;;;5042102;28;20032;-59
2020/12/20 01:18:49;;;;;;;16.88;7.47;;;10.30;99.90;;;;;;5073260;28;20476;-59
2020/12/20 01:21:16;;;;;;;18.35;7.20;;;10.30;99.90;;;;;;5057191;28;20472;-58
2020/12/20 01:23:42;;;;;;;18.40;8.13;;;10.20;99.90;;;;;;5056696;28;20024;-57
2020/12/20 01:26:07;;;;;;;17.17;7.82;;;10.30;99.90;;;;;;5059073;28;20130;-58
2020/12/20 01:28:33;;;;;;;16.27;7.35;;;10.30;99.90;;;;;;5056890;28;20055;-59
2020/12/20 01:31:04;;;;;;;20.60;7.72;;;10.40;99.90;;;;;;5056041;28;20032;-56
2020/12/20 01:33:30;;;;;;;16.80;7.05;;;10.30;99.90;;;;;;5056281;28;20025;-56
2020/12/20 01:35:56;;;;;;;18.38;7.25;;;10.40;99.90;;;;;;5056205;28;20743;-58
2020/12/20 01:38:22;;;;;;;17.30;7.03;;;10.30;99.90;;;;;;5050459;28;20070;-57
2020/12/20 01:40:52;;;;;;;16.92;7.43;;;10.20;99.90;;;;;;5026678;28;20069;-59
2020/12/20 01:43:18;;;;;;;16.55;7.32;;;10.20;99.90;;;;;;5060898;28;20077;-57
2020/12/20 01:45:44;;;;;;;17.30;7.75;;;10.20;99.90;;;;;;5073825;28;20024;-57
2020/12/20 01:48:11;;;;;;;15.57;7.15;;;10.20;99.90;;;;;;5071824;28;20665;-57
2020/12/20 01:50:39;;;;;;;16.60;7.40;;;10.20;99.90;;;;;;5074044;28;20099;-56
2020/12/20 01:53:05;;;;;;;18.10;7.32;;;10.10;99.90;;;;;;5074621;28;20028;-58
2020/12/20 01:55:32;;;;;;;17.00;7.82;;;10.10;99.90;;;;;;5073268;28;20063;-58
2020/12/20 01:57:57;;;;;;;20.00;7.63;;;10.10;99.90;;;;;;5074729;28;20487;-55
2020/12/20 02:00:23;;;;;;;16.60;7.47;;;10.10;99.90;;;;;;5074539;28;20093;-57
2020/12/20 02:02:49;;;;;;;19.50;7.85;;;10.10;99.90;;;;;;5073386;28;20391;-57
2020/12/20 02:05:14;;;;;;;18.67;7.32;;;10.10;99.90;;;;;;5073804;28;20047;-57
2020/12/20 02:07:40;;;;;;;16.83;7.20;;;10.10;99.90;;;;;;5073379;28;20151;-57
2020/12/20 02:10:07;;;;;;;17.83;7.07;;;10.10;99.90;;;;;;5074451;28;20044;-56
2020/12/20 02:12:32;;;;;;;16.13;7.10;;;10.20;99.90;;;;;;5074372;28;20025;-54
2020/12/20 02:14:58;;;;;;;20.35;7.55;;;10.10;99.90;;;;;;5073323;28;20035;-56
2020/12/20 02:17:24;;;;;;;17.92;7.63;;;10.00;99.90;;;;;;5074585;28;20454;-57
2020/12/20 02:19:50;;;;;;;26.52;7.78;;;10.00;99.90;;;;;;5074063;28;20034;-56
2020/12/20 02:22:16;;;;;;;17.63;7.50;;;10.00;99.90;;;;;;5074458;28;20016;-55
2020/12/20 02:24:43;;;;;;;16.02;7.57;;;10.00;99.90;;;;;;5074111;28;20036;-55
2020/12/20 02:27:08;;;;;;;19.02;7.70;;;10.10;99.90;;;;;;5073408;28;20488;-56
2020/12/20 02:29:34;;;;;;;18.02;7.95;;;10.10;99.90;;;;;;5073627;28;20071;-53
2020/12/20 02:32:00;;;;;;;16.13;6.90;;;10.10;99.90;;;;;;5073283;28;20028;-58
2020/12/20 02:34:25;;;;;;;16.65;7.10;;;10.10;99.90;;;;;;5074565;28;20021;-59
2020/12/20 02:36:51;;;;;;;17.02;7.07;;;10.00;99.90;;;;;;5073188;28;20071;-55
2020/12/20 02:39:17;;;;;;;15.98;6.65;;;10.00;99.90;;;;;;5073534;28;20491;-60
2020/12/20 02:41:43;;;;;;;17.55;7.20;;;10.00;99.90;;;;;;5073850;28;20082;-54
2020/12/20 02:44:09;;;;;;;16.77;7.47;;;10.00;99.90;;;;;;5074351;28;20107;-56
2020/12/20 02:46:34;;;;;;;18.25;8.27;;;9.90;99.90;;;;;;5073976;28;20058;-54
2020/12/20 02:49:01;;;;;;;16.42;6.93;;;9.90;99.90;;;;;;5073388;28;20024;-56
2020/12/20 02:51:27;;;;;;;16.60;7.50;;;10.00;99.90;;;;;;5073860;28;20035;-59
2020/12/20 02:53:53;;;;;;;17.17;6.97;;;9.90;99.90;;;;;;5072513;28;20028;-58
2020/12/20 02:56:19;;;;;;;20.70;8.52;;;9.90;99.90;;;;;;5074050;28;20016;-59
2020/12/20 02:58:49;;;;;;;16.13;7.15;;;9.90;99.90;;;;;;5073470;28;20020;-59
2020/12/20 03:01:15;;;;;;;15.85;7.28;;;9.80;99.90;;;;;;5073767;28;20028;-54
2020/12/20 03:03:41;;;;;;;16.60;7.03;;;9.80;99.90;;;;;;5073159;28;20487;-59
2020/12/20 03:06:07;;;;;;;16.27;7.30;;;9.90;99.90;;;;;;5071545;28;20090;-53
2020/12/20 03:08:33;;;;;;;18.27;7.70;;;9.90;99.90;;;;;;5073264;28;20024;-59
2020/12/20 03:10:59;;;;;;;16.05;6.85;;;9.90;99.90;;;;;;5072539;28;20115;-57
2020/12/20 03:13:25;;;;;;;16.98;7.20;;;9.90;99.90;;;;;;5073843;28;20044;-57
2020/12/20 03:15:51;;;;;;;16.95;7.30;;;10.00;99.90;;;;;;5072597;28;20450;-55
2020/12/20 03:18:16;;;;;;;16.42;7.07;;;10.00;99.90;;;;;;5073780;28;20111;-56
2020/12/20 03:20:42;;;;;;;15.98;7.28;;;10.00;99.90;;;;;;5073134;28;20021;-57
2020/12/20 03:23:08;;;;;;;16.80;7.07;;;10.00;99.90;;;;;;5073453;28;20116;-56
2020/12/20 03:25:34;;;;;;;17.23;6.47;;;10.00;99.90;;;;;;5072429;28;20036;-55
2020/12/20 03:28:00;;;;;;;15.93;6.70;;;10.00;99.90;;;;;;5072987;28;20524;-60
2020/12/20 03:30:27;;;;;;;17.88;7.28;;;9.90;99.90;;;;;;5071335;28;20021;-55
2020/12/20 03:32:54;;;;;;;17.13;7.47;;;9.90;99.90;;;;;;5073446;28;20029;-58
2020/12/20 03:35:20;;;;;;;19.15;6.90;;;9.90;99.90;;;;;;5072937;28;20279;-53
2020/12/20 03:37:50;;;;;;;17.25;7.30;;;10.00;99.90;;;;;;5072799;28;20025;-59
2020/12/20 03:40:16;;;;;;;15.98;6.88;;;10.00;99.90;;;;;;5072644;28;20498;-55
2020/12/20 03:42:42;;;;;;;15.85;7.03;;;9.90;99.90;;;;;;5073000;28;20031;-57
2020/12/20 03:45:08;;;;;;;16.58;6.88;;;10.00;99.90;;;;;;5071461;28;20391;-52
2020/12/20 03:47:34;;;;;;;15.80;6.95;;;10.10;99.90;;;;;;5072787;28;20103;-56
2020/12/20 03:50:00;;;;;;;16.27;7.15;;;9.90;99.90;;;;;;5071886;28;20032;-56
2020/12/20 03:52:25;;;;;;;17.30;7.07;;;9.90;99.90;;;;;;5072369;28;20024;-54
2020/12/20 03:54:51;;;;;;;15.38;6.57;;;9.80;99.90;;;;;;5071207;28;20032;-61
2020/12/20 03:57:17;;;;;;;16.83;7.18;;;9.70;99.90;;;;;;5071902;28;20020;-57
2020/12/20 03:59:43;;;;;;;16.77;7.22;;;9.70;99.90;;;;;;5072326;28;20221;-57
2020/12/20 04:02:08;;;;;;;16.85;6.75;;;9.70;99.90;;;;;;5072526;28;20025;-54
2020/12/20 04:04:34;;;;;;;16.02;6.60;;;9.70;99.90;;;;;;5072389;28;20055;-56
2020/12/20 04:07:00;;;;;;;16.95;6.82;;;9.70;99.90;;;;;;5072280;28;20026;-57
2020/12/20 04:09:25;;;;;;;17.13;6.80;;;9.70;99.90;;;;;;5071591;28;20484;-58
2020/12/20 04:11:51;;;;;;;15.52;6.72;;;9.60;99.90;;;;;;5072214;28;20131;-54
2020/12/20 04:14:17;;;;;;;16.40;7.25;;;9.70;99.90;;;;;;5072098;28;20368;-57
2020/12/20 04:16:42;;;;;;;16.05;7.55;;;9.80;99.90;;;;;;5071182;28;20024;-55
2020/12/20 04:19:08;;;;;;;17.83;7.20;;;9.70;99.90;;;;;;5070937;28;20103;-58
2020/12/20 04:21:34;;;;;;;17.88;7.82;;;9.80;99.90;;;;;;5072770;28;20480;-57
2020/12/20 04:24:00;;;;;;;17.05;7.82;;;9.70;99.90;;;;;;5072733;28;20028;-56
2020/12/20 04:26:26;;;;;;;17.38;7.82;;;9.70;99.90;;;;;;5071935;28;20117;-55
2020/12/20 04:28:51;;;;;;;16.85;7.00;;;9.70;99.90;;;;;;5071605;28;20111;-54
2020/12/20 04:31:17;;;;;;;18.50;7.90;;;9.70;99.90;;;;;;5072421;28;20437;-59
2020/12/20 04:33:46;;;;;;;17.85;7.63;;;9.70;99.90;;;;;;5071957;28;20056;-59
2020/12/20 04:36:12;;;;;;;16.52;6.82;;;9.70;99.90;;;;;;5070974;28;20415;-55
2020/12/20 04:38:37;;;;;;;16.88;6.85;;;9.70;99.90;;;;;;5069657;28;20082;-56
2020/12/20 04:41:03;;;;;;;16.60;6.80;;;9.70;99.90;;;;;;5070380;28;20021;-55
2020/12/20 04:43:29;;;;;;;22.23;8.52;;;9.60;99.90;;;;;;5070401;28;20025;-58
2020/12/20 04:45:57;;;;;;;18.45;7.25;;;9.60;99.90;;;;;;5072188;28;20021;-57
2020/12/20 04:48:29;;;;;;;16.83;8.10;;;9.50;99.90;;;;;;5071256;28;20105;-58
2020/12/20 04:50:56;;;;;;;17.20;6.63;;;9.50;99.90;;;;;;5072067;28;20040;-56
2020/12/20 04:53:23;;;;;;;16.80;7.35;;;9.50;99.90;;;;;;5071607;28;20419;-55
2020/12/20 04:55:51;;;;;;;17.25;6.65;;;9.50;99.90;;;;;;5071577;28;20036;-56
2020/12/20 04:58:18;;;;;;;16.92;7.50;;;9.50;99.90;;;;;;5070733;28;20027;-52
2020/12/20 05:00:45;;;;;;;16.67;7.35;;;9.30;99.90;;;;;;5071622;28;20107;-59
2020/12/20 05:03:11;;;;;;;16.60;7.53;;;9.30;99.90;;;;;;5071477;28;20031;-59
2020/12/20 05:05:37;;;;;;;19.98;7.28;;;9.20;99.90;;;;;;5071395;28;20032;-61
2020/12/20 05:08:03;;;;;;;16.45;7.50;;;9.20;99.90;;;;;;5070013;28;20089;-54
2020/12/20 05:10:40;;;;;;;19.77;8.02;;;9.20;99.90;;;;;;5071341;28;20035;-55
2020/12/20 05:13:06;;;;;;;16.65;8.25;;;9.10;99.90;;;;;;5071462;28;20514;-57
2020/12/20 05:15:32;;;;;;;16.90;6.97;;;9.10;99.90;;;;;;5071457;28;20081;-54
2020/12/20 05:18:11;;;;;;;16.27;6.90;;;9.20;99.90;;;;;;5070531;28;20388;-57
2020/12/20 05:20:46;;;;;;;17.35;7.40;;;9.20;99.90;;;;;;5070862;28;20051;-59
2020/12/20 05:23:13;;;;;;;17.75;7.80;;;9.20;99.90;;;;;;5071009;28;20074;-58
2020/12/20 05:25:40;;;;;;;18.38;7.93;;;9.20;99.90;;;;;;5071389;28;20039;-56
2020/12/20 05:28:14;;;;;;;18.20;7.97;;;9.20;99.90;;;;;;5071044;28;20416;-59
2020/12/20 05:30:42;;;;;;;16.83;7.70;;;9.30;99.90;;;;;;5069653;28;20028;-57
2020/12/20 05:33:08;;;;;;;17.83;7.63;;;9.40;99.90;;;;;;5070121;28;20078;-57
2020/12/20 05:35:34;;;;;;;16.48;7.70;;;9.40;99.90;;;;;;5071211;28;20028;-60
2020/12/20 05:38:00;;;;;;;18.55;7.88;;;9.40;99.90;;;;;;5071286;28;20021;-58
2020/12/20 05:40:27;;;;;;;20.45;8.75;;;9.30;99.90;;;;;;5070772;28;20025;-55
2020/12/20 05:43:05;;;;;;;19.00;8.68;;;9.30;99.90;;;;;;5071204;28;20043;-52
2020/12/20 05:45:33;;;;;;;17.75;8.05;;;9.20;99.90;;;;;;5071090;28;20048;-56
2020/12/20 05:48:18;;;;;;;17.80;8.20;;;9.30;99.90;;;;;;5070891;28;20396;-55
2020/12/20 05:50:51;;;;;;;18.48;8.15;;;9.30;99.90;;;;;;5071228;28;20029;-58
2020/12/20 05:53:29;;;;;;;19.63;9.48;;;9.30;99.90;;;;;;5070029;28;20068;-57
2020/12/20 05:55:56;;;;;;;19.13;8.57;;;9.30;99.90;;;;;;5071146;28;20388;-58
2020/12/20 05:58:22;;;;;;;17.67;8.52;;;9.30;99.90;;;;;;5069105;28;20082;-55
2020/12/20 06:00:48;;;;;;;18.48;8.50;;;9.50;99.90;;;;;;5070915;28;20029;-58
2020/12/20 06:03:15;;;;;;;20.45;8.48;;;9.50;99.90;;;;;;5070699;28;20028;-57
2020/12/20 06:05:44;;;;;;;21.23;9.48;;;9.40;99.90;;;;;;5070871;28;20047;-58
2020/12/20 06:08:12;;;;;;;17.10;8.43;;;9.40;99.90;;;;;;5069921;28;20036;-60
2020/12/20 06:10:44;;;;;;;18.67;8.55;;;9.40;99.90;;;;;;5070195;28;20032;-57
2020/12/20 06:13:12;;;;;;;18.23;8.38;;;9.40;99.90;;;;;;5071480;28;20112;-58
2020/12/20 06:15:39;;;;;;;;;;;9.40;99.90;;;;;;5071644;28;20032;-58
2020/12/20 06:18:09;;;;;;;17.20;8.02;;;9.40;99.90;;;;;;5071185;28;19911;-55
2020/12/20 06:20:57;;;;;;;17.27;8.32;;;9.40;99.90;;;;;;5070468;28;20073;-57
2020/12/20 06:23:26;;;;;;;17.58;8.48;;;9.40;99.90;;;;;;5070559;28;20159;-58
2020/12/20 06:25:53;;;;;;;19.15;9.02;;;9.50;99.90;;;;;;5071105;28;20047;-59
2020/12/20 06:28:25;;;;;;;19.30;8.15;;;9.50;99.90;;;;;;5071136;28;20048;-60
2020/12/20 06:30:51;;;;;;;17.73;8.43;;;9.60;99.90;;;;;;5071298;28;20032;-58
2020/12/20 06:33:35;;;;;;;20.70;8.15;;;9.60;99.90;;;;;;5073209;28;20028;-60
2020/12/20 06:36:03;;;;;;;19.23;8.95;;;9.50;99.90;;;;;;5054290;28;20497;-57
2020/12/20 06:38:29;;;;;;;17.88;8.40;;;9.40;99.90;;;;;;5066917;28;20017;-55
2020/12/20 06:40:54;;;;;;;18.80;8.30;;;9.50;99.90;;;;;;5073164;28;20503;-56
2020/12/20 06:43:46;;;;;;;22.35;9.63;;;9.40;99.90;;;;;;5074216;28;20074;-57
2020/12/20 06:46:38;;;;;;;18.77;8.63;;;9.40;99.90;;;;;;5072251;28;20036;-57
2020/12/20 06:49:32;;;;;;;18.95;9.20;;;9.40;99.90;;;;;;5073952;28;20095;-55
2020/12/20 06:52:16;;;;;;;18.02;8.85;;;9.30;99.90;;;;;;5074190;28;20051;-56
2020/12/20 06:54:42;;;;;;;18.25;8.77;;;9.40;99.90;;;;;;5072543;28;20048;-52
2020/12/20 06:57:10;;;;;;;19.25;9.18;;;9.30;99.90;;;;;;5073921;28;20480;-59
2020/12/20 06:59:45;;;;;;;;;;;9.30;99.90;;;;;;5073149;28;20039;-57
2020/12/20 07:02:30;;;;;;;20.05;9.43;;;9.20;99.90;;;;;;5071034;28;19904;-58
2020/12/20 07:04:56;;;;;;;20.42;9.95;;;9.20;99.90;;;;;;5070619;28;20025;-59
2020/12/20 07:07:21;;;;;;;19.58;9.10;;;9.20;99.90;;;;;;5073640;28;20158;-58
2020/12/20 07:09:47;;;;;;;19.98;9.40;;;9.20;99.90;;;;;;5071597;28;20039;-59
2020/12/20 07:12:31;;;;;;;19.45;9.93;;;9.10;99.90;;;;;;5084480;22;20040;-63
2020/12/20 07:14:57;;;;;;;18.15;9.52;;;9.20;99.90;;;;;;5053929;28;20025;-61
2020/12/20 07:17:26;;;;;;;19.85;9.55;;;9.20;99.90;;;;;;5052336;28;20379;-61
2020/12/20 07:20:33;;;;;;;20.25;9.20;;;9.20;99.90;;;;;;5052975;28;20025;-64
2020/12/20 07:22:58;;;;;;;20.35;9.20;;;9.30;99.90;;;;;;5032374;28;20159;-64
2020/12/20 07:25:27;;;;;;;19.85;9.25;;;9.30;99.90;;;;;;5033961;28;20119;-63
2020/12/20 07:27:53;;;;;;;19.33;9.52;;;9.30;99.90;;;;;;5033217;28;20102;-61
2020/12/20 07:30:19;;;;;;;19.55;9.38;;;9.30;99.90;;;;;;5033170;28;20485;-61
2020/12/20 07:32:45;;;;;;;21.08;9.63;;;9.30;99.90;;;;;;5048553;28;20029;-62
2020/12/20 07:35:14;;;;;;;18.90;9.68;;;9.20;99.90;;;;;;5035916;28;20476;-60
2020/12/20 07:37:52;;;;;;;19.48;9.05;;;9.30;99.90;;;;;;5041083;28;20027;-62
2020/12/20 07:40:19;;;;;;;19.33;9.32;;;9.30;99.90;;;;;;5052251;28;20033;-62
2020/12/20 07:42:45;;;;;;;19.58;9.88;;;9.20;99.90;;;;;;5053175;28;20021;-65
2020/12/20 07:45:13;;;;;;;19.63;9.20;;;9.20;99.90;;;;;;5051695;28;20036;-60
2020/12/20 07:47:39;;;;;;;;;;;9.20;99.90;;;;;;5051978;28;20071;-64
2020/12/20 07:50:04;;;;;;;19.88;8.85;;;9.20;99.90;;;;;;5051277;28;19909;-66
2020/12/20 07:52:30;;;;;;;20.23;9.90;;;9.20;99.90;;;;;;5051616;28;20117;-64
2020/12/20 07:55:00;;;;;;;22.55;9.48;;;9.20;99.90;;;;;;5052717;28;20287;-63
2020/12/20 07:57:27;;;;;;;19.63;9.43;;;9.20;99.90;;;;;;5044897;28;20373;-59
2020/12/20 08:00:06;;;;;;;19.08;10.13;;;9.20;99.90;;;;;;5048485;28;20056;-63
2020/12/20 08:02:32;;;;;;;23.15;9.50;;;9.20;99.90;;;;;;5040661;28;20397;-61
2020/12/20 08:05:10;;;;;;;19.67;9.70;;;9.30;99.90;;;;;;5036557;28;20021;-63
2020/12/20 08:07:35;;;;;;;19.65;9.70;;;9.40;99.90;;;;;;5042760;28;20040;-60
2020/12/20 08:10:02;;;;;;;19.27;9.75;;;9.30;99.90;;;;;;5037086;28;20037;-61
2020/12/20 08:12:28;;;;;;;21.15;9.43;;;9.30;99.90;;;;;;5031220;28;20132;-61
2020/12/20 08:15:07;;;;;;;20.13;10.13;;;9.30;99.90;;;;;;5038054;28;20203;-60
2020/12/20 08:17:35;;;;;;;20.80;10.52;;;9.30;99.90;;;;;;5052340;28;20517;-63
2020/12/20 08:20:05;;;;;;;21.77;10.82;;;9.40;99.90;;;;;;5050732;28;20079;-61
2020/12/20 08:22:34;;;;;;;20.92;10.27;;;9.30;99.90;;;;;;5051481;28;20048;-60
2020/12/20 08:25:08;;;;;;;20.58;9.75;;;9.30;99.90;;;;;;5052449;28;20037;-62
2020/12/20 08:27:37;;;;;;;19.88;9.98;;;9.30;99.90;;;;;;5052321;28;20032;-62
2020/12/20 08:30:08;;;;;;;20.75;9.43;;;9.30;99.90;;;;;;5050963;28;20029;-62
2020/12/20 08:32:42;;;;;;;18.83;9.40;;;9.30;99.90;;;;;;5040438;28;20033;-64
2020/12/20 08:35:18;;;;;;;18.85;9.43;;;9.40;99.90;;;;;;5031413;28;20432;-60
2020/12/20 08:37:45;;;;;;;19.73;9.38;;;9.40;99.90;;;;;;5014874;28;20049;-64
2020/12/20 08:40:16;;;;;;;18.63;9.30;;;9.40;99.90;;;;;;5030564;28;20029;-61
2020/12/20 08:42:42;;;;;;;19.85;9.60;;;9.50;99.90;;;;;;5030897;28;20030;-62
2020/12/20 08:45:14;;;;;;;18.25;9.18;;;9.50;99.90;;;;;;5032553;28;20029;-61
2020/12/20 08:47:40;;;;;;;20.88;10.45;;;9.60;99.90;;;;;;5030336;28;20124;-63
2020/12/20 08:50:06;;;;;;;23.27;11.25;;;9.40;99.90;;;;;;5031532;28;20100;-63
2020/12/20 08:52:33;;;;;;;21.85;9.98;;;9.40;99.90;;;;;;5031126;28;20108;-61
2020/12/20 08:55:00;;;;;;;20.20;10.43;;;9.40;99.90;;;;;;5031688;28;20025;-57
2020/12/20 08:57:30;;;;;;;21.35;11.63;;;9.40;99.90;;;;;;5031210;28;20045;-58
2020/12/20 09:00:17;;;;;;;20.88;10.18;;;9.40;99.90;;;;;;5031278;28;20536;-62
2020/12/20 09:02:43;;;;;;;20.52;10.57;;;9.50;99.90;;;;;;5031728;28;20045;-62
2020/12/20 09:05:13;;;;;;;21.15;10.32;;;9.60;99.90;;;;;;5040555;28;20449;-59
2020/12/20 09:07:45;;;;;;;19.10;9.93;;;9.80;99.90;;;;;;5037209;28;20510;-60
2020/12/20 09:10:13;;;;;;;19.60;10.15;;;9.80;99.90;;;;;;5032304;28;20480;-60
2020/12/20 09:12:51;;;;;;;19.15;9.85;;;9.80;99.90;;;;;;5042031;28;20032;-60
2020/12/20 09:15:18;;;;;;;20.60;9.80;;;9.90;99.90;;;;;;5050216;28;20059;-59
2020/12/20 09:17:49;;;;;;;19.67;9.93;;;10.00;99.90;;;;;;5050376;28;20021;-62
2020/12/20 09:20:19;;;;;;;19.65;10.23;;;10.00;99.90;;;;;;5051015;28;20439;-63
2020/12/20 09:22:58;;;;;;;23.88;10.98;;;10.00;99.90;;;;;;5051783;28;20044;-59
2020/12/20 09:25:29;;;;;;;;;;;10.10;99.90;;;;;;5050559;28;20029;-61
2020/12/20 09:28:00;;;;;;;19.98;10.40;;;10.00;99.90;;;;;;5050021;28;19915;-61
2020/12/20 09:30:44;;;;;;;20.20;11.07;;;9.90;99.90;;;;;;5051575;28;20029;-59
2020/12/20 09:33:32;;;;;;;19.75;10.13;;;9.90;99.90;;;;;;5040711;28;20029;-58
2020/12/20 09:35:58;;;;;;;22.65;11.52;;;9.80;99.90;;;;;;5032481;28;20091;-58
2020/12/20 09:38:30;;;;;;;20.52;11.18;;;9.80;99.90;;;;;;5033015;28;20029;-57
2020/12/20 09:41:01;;;;;;;21.92;11.23;;;9.80;99.90;;;;;;5035674;28;20030;-58
2020/12/20 09:43:27;;;;;;;19.05;9.98;;;9.80;99.90;;;;;;5032876;28;20029;-61
2020/12/20 09:45:52;;;;;;;18.83;9.30;;;9.90;99.90;;;;;;5032086;28;20030;-58
2020/12/20 09:48:18;;;;;;;20.02;10.25;;;10.00;99.90;;;;;;5030145;28;20025;-56
2020/12/20 09:50:44;;;;;;;22.17;10.85;;;10.10;99.90;;;;;;5031877;28;20432;-59
2020/12/20 09:53:11;;;;;;;19.40;9.75;;;10.10;99.90;;;;;;5031817;28;20022;-61
2020/12/20 09:55:41;;;;;;;20.42;10.35;;;10.20;99.90;;;;;;5031556;28;20032;-58
2020/12/20 09:58:10;;;;;;;17.73;9.57;;;10.20;99.90;;;;;;5031660;28;20104;-56
2020/12/20 10:00:36;;;;;;;21.60;10.15;;;10.20;99.90;;;;;;5049404;28;20029;-58
2020/12/20 10:03:03;;;;;;;21.08;10.48;;;10.30;99.90;;;;;;5051896;28;20052;-54
2020/12/20 10:05:29;;;;;;;19.77;9.93;;;10.30;99.90;;;;;;5055003;28;20503;-58
2020/12/20 10:07:55;;;;;;;20.92;10.80;;;10.30;99.90;;;;;;5053586;28;20061;-55
2020/12/20 10:10:20;;;;;;;23.50;11.25;;;10.30;99.90;;;;;;5054672;28;20031;-59
2020/12/20 10:12:46;;;;;;;20.67;10.52;;;10.40;99.90;;;;;;5055018;28;20082;-64
2020/12/20 10:15:12;;;;;;;19.02;9.65;;;10.50;99.90;;;;;;5054971;28;20041;-63
2020/12/20 10:17:37;;;;;;;19.67;10.07;;;10.60;99.90;;;;;;5053183;28;20017;-57
2020/12/20 10:20:33;;;;;;;20.70;10.10;;;10.60;99.90;;;;;;5054093;28;20103;-57
2020/12/20 10:23:05;;;;;;;22.50;10.27;;;10.90;99.90;;;;;;5051836;28;20066;-59
2020/12/20 10:25:31;;;;;;;24.23;9.95;;;11.00;99.90;;;;;;5058280;28;20021;-61
2020/12/20 10:27:57;;;;;;;19.42;9.93;;;11.00;99.90;;;;;;5054483;28;20511;-62
2020/12/20 10:30:23;;;;;;;20.48;10.18;;;11.10;99.90;;;;;;5052628;28;20032;-59
2020/12/20 10:32:49;;;;;;;20.75;9.85;;;11.20;99.90;;;;;;5054791;28;20025;-58
2020/12/20 10:35:15;;;;;;;22.42;10.15;;;11.20;99.90;;;;;;5054597;28;20083;-60
2020/12/20 10:37:41;;;;;;;18.92;9.20;;;11.30;99.90;;;;;;5054155;28;20025;-59
2020/12/20 10:40:07;;;;;;;18.42;9.38;;;11.40;99.90;;;;;;5053954;28;20021;-60
2020/12/20 10:42:33;;;;;;;19.98;10.25;;;11.40;99.90;;;;;;5053043;28;20079;-64
2020/12/20 10:44:59;;;;;;;18.85;9.52;;;11.30;99.90;;;;;;5048315;28;20492;-63
2020/12/20 10:47:24;;;;;;;18.08;9.05;;;11.50;99.90;;;;;;5051930;28;20098;-61
2020/12/20 10:49:51;;;;;;;19.27;9.80;;;11.70;99.90;;;;;;5052583;28;20031;-58
2020/12/20 10:52:17;;;;;;;19.63;10.13;;;12.10;99.90;;;;;;5052587;28;20029;-59
2020/12/20 10:54:44;;;;;;;19.55;9.88;;;12.60;99.90;;;;;;5055043;28;20024;-59
2020/12/20 10:57:10;;;;;;;20.08;9.63;;;13.00;99.90;;;;;;5053774;28;20025;-61
2020/12/20 10:59:36;;;;;;;19.90;8.88;;;13.20;99.90;;;;;;5051807;28;20359;-63
2020/12/20 11:02:02;;;;;;;21.10;8.98;;;13.30;99.90;;;;;;5053713;28;20106;-60
2020/12/20 11:04:28;;;;;;;18.20;9.43;;;13.20;99.90;;;;;;5051428;28;20032;-58
2020/12/20 11:06:58;;;;;;;18.88;9.18;;;13.00;99.90;;;;;;5052478;28;20029;-57
2020/12/20 11:09:27;;;;;;;19.60;9.50;;;13.10;99.90;;;;;;4696318;28;9999588;-61
2020/12/20 11:11:53;;;;;;;20.20;10.05;;;12.90;99.90;;;;;;5039558;28;20086;-59
2020/12/20 11:14:19;;;;;;;17.85;8.23;;;12.70;99.90;;;;;;5036375;28;20037;-58
2020/12/20 11:16:45;;;;;;;17.45;8.10;;;12.40;99.90;;;;;;5027957;28;20072;-60
2020/12/20 11:19:13;;;;;;;18.42;8.90;;;12.20;99.90;;;;;;5028759;28;20026;-61
2020/12/20 11:21:39;;;;;;;20.08;7.82;;;12.00;99.90;;;;;;5028014;28;20052;-61
2020/12/20 11:24:05;;;;;;;19.02;7.90;;;11.90;99.90;;;;;;5028853;28;20076;-57
2020/12/20 11:26:30;;;;;;;16.70;8.27;;;11.80;99.90;;;;;;5033251;28;20040;-60
2020/12/20 11:28:56;;;;;;;19.88;7.97;;;11.70;99.90;;;;;;5048350;28;20048;-56
2020/12/20 11:31:24;;;;;;;18.48;8.65;;;11.70;99.90;;;;;;5048039;28;20060;-61
2020/12/20 11:33:52;;;;;;;17.73;7.50;;;11.80;99.90;;;;;;5048600;28;20029;-55
2020/12/20 11:36:19;;;;;;;19.60;7.85;;;11.80;99.90;;;;;;5048172;28;20060;-62
2020/12/20 11:38:46;;;;;;;17.10;7.83;;;11.70;99.90;;;;;;4689865;28;9999813;-55
2020/12/20 11:41:12;;;;;;;17.83;7.88;;;11.70;99.90;;;;;;5029592;28;20650;-60
2020/12/20 11:43:40;;;;;;;18.55;7.85;;;11.70;99.90;;;;;;5035378;28;20024;-57
2020/12/20 11:46:06;;;;;;;21.98;8.15;;;11.70;99.90;;;;;;5049481;28;20494;-53
2020/12/20 11:48:32;;;;;;;16.65;7.57;;;11.80;99.90;;;;;;5051782;28;20443;-61
2020/12/20 11:50:58;;;;;;;17.73;8.10;;;11.70;99.90;;;;;;5051254;28;20021;-59
2020/12/20 11:53:27;;;;;;;19.65;8.43;;;11.70;99.90;;;;;;5051492;28;20476;-61
2020/12/20 11:55:52;;;;;;;19.88;8.05;;;11.60;99.90;;;;;;5053078;28;20048;-62
2020/12/20 11:58:18;;;;;;;18.30;8.38;;;11.60;99.90;;;;;;5052564;28;20056;-61
2020/12/20 12:00:45;;;;;;;15.73;7.50;;;11.60;99.90;;;;;;5052469;28;20452;-59
2020/12/20 12:03:12;;;;;;;18.67;8.05;;;11.60;99.90;;;;;;5051605;28;20017;-59
2020/12/20 12:05:40;;;;;;;19.88;7.22;;;11.60;99.90;;;;;;5051433;28;20531;-57
2020/12/20 12:08:06;;;;;;;17.35;7.63;;;11.60;99.90;;;;;;5055144;28;20044;-59
2020/12/20 12:10:32;;;;;;;19.40;7.72;;;11.70;99.90;;;;;;5055173;28;20511;-56
2020/12/20 12:13:00;;;;;;;19.10;7.97;;;11.80;99.90;;;;;;5052548;28;20033;-60
2020/12/20 12:15:25;;;;;;;21.00;8.95;;;11.80;99.90;;;;;;5052689;28;20037;-59
2020/12/20 12:17:51;;;;;;;24.38;10.05;;;11.90;99.90;;;;;;5046278;28;20013;-60
2020/12/20 12:20:17;;;;;;;19.45;8.25;;;12.00;99.90;;;;;;5030579;28;20018;-59
2020/12/20 12:22:42;;;;;;;18.23;7.50;;;12.00;99.90;;;;;;5030873;28;20025;-59
2020/12/20 12:25:08;;;;;;;18.38;8.55;;;12.00;99.90;;;;;;5031104;28;20026;-59
2020/12/20 12:27:35;;;;;;;18.23;7.68;;;11.90;99.90;;;;;;5031154;28;20036;-58
2020/12/20 12:30:00;;;;;;;24.35;9.90;;;12.00;99.90;;;;;;5033189;28;20159;-57
2020/12/20 12:32:26;;;;;;;16.77;6.93;;;11.90;99.90;;;;;;5032987;28;20504;-53
2020/12/20 12:34:51;;;;;;;19.95;8.10;;;11.80;99.90;;;;;;5033474;28;20029;-61
2020/12/20 12:37:18;;;;;;;17.52;7.10;;;11.70;99.90;;;;;;4682886;28;9999876;-62
2020/12/20 12:39:44;;;;;;;18.60;7.15;;;11.80;99.90;;;;;;5029065;28;20026;-62
2020/12/20 12:42:09;;;;;;;20.65;7.32;;;11.80;99.90;;;;;;5029690;28;20022;-57
2020/12/20 12:44:35;;;;;;;17.23;6.75;;;11.80;99.90;;;;;;5028121;28;20033;-60